Time;durP1;ratioP1;P1;durP2;ratioP2;P2;SDS_P1;SDS_P2;PMS_P1;PMS_P2;Temp;Humidity;BMP_temperature;BMP_pressure;BME280_temperature;BME280_humidity;BME280_pressure;Samples;Min_cycle;Max_cycle;Signal;HPM_P1;HPM_P2
2023/06/17 00:01:48;;;;;;;;;;;;;;;;;;;;;
2023/06/17 00:04:18;;;;;;;3.53;2.80;;;19.00;71.10;;;;;;5073556;28;20081;-96
2023/06/17 00:06:53;;;;;;;3.80;2.88;;;18.90;71.20;;;;;;5071974;28;20028;-96
2023/06/17 00:09:41;;;;;;;;;;;;;;;;;;;;;
2023/06/17 00:12:46;;;;;;;;;;;;;;;;;;;;;
2023/06/17 00:18:26;;;;;;;3.30;3.00;;;18.80;72.30;;;;;;5066617;28;20035;-96
2023/06/17 00:21:02;;;;;;;6.00;2.83;;;18.70;72.50;;;;;;5057516;28;20100;-96
2023/06/17 00:23:47;;;;;;;5.65;2.90;;;18.70;72.80;;;;;;5057394;28;20082;-96
2023/06/17 00:26:42;;;;;;;4.10;2.70;;;18.60;73.10;;;;;;5056973;28;20044;-96
2023/06/17 00:29:24;;;;;;;3.30;2.75;;;18.60;73.50;;;;;;5073141;28;20059;-96
2023/06/17 00:31:53;;;;;;;5.13;3.42;;;18.50;74.10;;;;;;5073466;28;20063;-96
2023/06/17 00:34:25;;;;;;;4.43;3.45;;;18.50;74.70;;;;;;5078971;28;20016;-96
2023/06/17 00:40:28;;;;;;;3.50;3.20;;;18.30;75.60;;;;;;5107040;28;20024;-96
2023/06/17 00:43:32;;;;;;;;;;;;;;;;;;;;;
2023/06/17 00:46:11;;;;;;;;;;;;;;;;;;;;;
2023/06/17 00:52:02;;;;;;;4.95;4.10;;;18.20;76.80;;;;;;5080290;28;20035;-96
2023/06/17 00:54:41;;;;;;;4.25;3.85;;;18.10;77.00;;;;;;5075886;28;20462;-96
2023/06/17 00:57:19;;;;;;;5.45;4.10;;;18.10;77.00;;;;;;5074243;28;20035;-96
2023/06/17 00:59:50;;;;;;;5.57;3.97;;;18.10;77.20;;;;;;5073226;28;20021;-96
2023/06/17 01:02:27;;;;;;;4.55;4.10;;;18.00;77.30;;;;;;5071852;28;20029;-96
2023/06/17 01:05:04;;;;;;;4.57;3.97;;;18.00;77.50;;;;;;5038729;28;20471;-96
2023/06/17 01:07:53;;;;;;;4.68;4.13;;;18.00;77.70;;;;;;5051430;28;20041;-96
2023/06/17 01:10:38;;;;;;;6.15;4.25;;;18.00;78.10;;;;;;5056815;28;20051;-82
2023/06/17 01:13:06;;;;;;;5.85;4.68;;;17.90;78.30;;;;;;5034328;28;20049;-82
2023/06/17 01:15:36;;;;;;;5.35;4.32;;;17.90;78.50;;;;;;5015337;28;20025;-82
2023/06/17 01:18:07;;;;;;;5.95;4.32;;;17.90;78.60;;;;;;5033747;28;20041;-82
2023/06/17 01:20:32;;;;;;;;;;;17.90;78.70;;;;;;5016061;28;20124;-82
2023/06/17 01:22:59;;;;;;;5.57;5.05;;;17.90;78.70;;;;;;5033891;28;19981;-82
2023/06/17 01:25:29;;;;;;;5.85;4.70;;;17.80;79.00;;;;;;5033439;28;20041;-82
2023/06/17 01:27:59;;;;;;;6.32;4.68;;;17.80;79.10;;;;;;5033758;28;20026;-82
2023/06/17 01:30:28;;;;;;;5.47;4.88;;;17.70;79.30;;;;;;5033392;28;20030;-82
2023/06/17 01:32:58;;;;;;;4.97;4.47;;;17.70;79.40;;;;;;5016427;28;20025;-82
2023/06/17 01:35:26;;;;;;;5.93;4.28;;;17.70;79.60;;;;;;5031870;28;20037;-82
2023/06/17 01:38:06;;;;;;;5.97;4.57;;;17.70;79.80;;;;;;5033479;28;20029;-82
2023/06/17 01:40:33;;;;;;;5.25;4.20;;;17.60;80.60;;;;;;5033713;28;20021;-82
2023/06/17 01:43:01;;;;;;;5.13;4.60;;;17.60;80.20;;;;;;5019897;28;20025;-82
2023/06/17 01:45:28;;;;;;;4.78;4.38;;;17.60;80.50;;;;;;5038369;28;20037;-81
2023/06/17 01:47:53;;;;;;;6.55;4.18;;;17.60;80.80;;;;;;5033467;28;20052;-82
2023/06/17 01:50:20;;;;;;;5.05;4.55;;;17.50;81.00;;;;;;5033236;28;20467;-81
2023/06/17 01:52:46;;;;;;;4.97;4.47;;;17.50;81.20;;;;;;5046087;28;20090;-81
2023/06/17 01:55:12;;;;;;;6.63;5.03;;;17.40;81.30;;;;;;5056916;28;20029;-81
2023/06/17 01:57:38;;;;;;;7.15;5.07;;;17.40;81.40;;;;;;5040490;28;20017;-80
2023/06/17 02:00:04;;;;;;;7.53;5.03;;;17.30;81.40;;;;;;5040326;28;20010;-81
2023/06/17 02:02:30;;;;;;;5.18;4.60;;;17.30;81.30;;;;;;5054390;28;20108;-81
2023/06/17 02:04:57;;;;;;;8.30;4.78;;;17.20;81.10;;;;;;5033312;28;20153;-84
2023/06/17 02:07:25;;;;;;;5.95;4.95;;;17.20;80.90;;;;;;5033744;28;20053;-82
2023/06/17 02:09:51;;;;;;;5.90;4.75;;;17.20;80.80;;;;;;5032650;28;20068;-82
2023/06/17 02:12:17;;;;;;;6.05;4.75;;;17.10;80.70;;;;;;5031928;28;20054;-82
2023/06/17 02:14:43;;;;;;;6.13;5.03;;;17.10;81.30;;;;;;5033041;28;20022;-81
2023/06/17 02:17:11;;;;;;;8.35;5.00;;;17.10;80.90;;;;;;5015362;28;20057;-82
2023/06/17 02:19:37;;;;;;;5.93;4.72;;;17.10;81.00;;;;;;5031925;28;20033;-81
2023/06/17 02:22:04;;;;;;;6.03;5.43;;;17.00;81.10;;;;;;5031925;28;20455;-81
2023/06/17 02:24:30;;;;;;;5.65;5.10;;;17.10;81.30;;;;;;5031956;28;20470;-81
2023/06/17 02:26:56;;;;;;;5.95;5.25;;;17.10;81.50;;;;;;5018940;28;20033;-82
2023/06/17 02:29:22;;;;;;;6.35;5.22;;;17.00;81.70;;;;;;5036299;28;20084;-81
2023/06/17 02:31:48;;;;;;;8.57;5.43;;;17.00;81.80;;;;;;5036764;28;20041;-82
2023/06/17 02:34:14;;;;;;;6.88;5.43;;;17.00;82.00;;;;;;5018923;28;20022;-81
2023/06/17 02:36:39;;;;;;;5.80;5.05;;;17.00;82.20;;;;;;5035459;28;20079;-82
2023/06/17 02:39:06;;;;;;;6.53;5.63;;;17.00;82.20;;;;;;5035167;28;20030;-82
2023/06/17 02:41:32;;;;;;;6.95;5.40;;;17.00;82.20;;;;;;5035218;28;20014;-82
2023/06/17 02:43:58;;;;;;;8.05;5.35;;;16.90;82.30;;;;;;5036608;28;20036;-82
2023/06/17 02:46:27;;;;;;;6.57;5.70;;;16.90;82.40;;;;;;5034533;28;20116;-81
2023/06/17 02:48:55;;;;;;;6.50;5.88;;;16.90;82.50;;;;;;5034059;28;20025;-81
2023/06/17 02:51:21;;;;;;;6.60;5.88;;;16.90;82.50;;;;;;5002312;28;20037;-82
2023/06/17 02:53:47;;;;;;;7.00;6.28;;;16.90;82.60;;;;;;5018698;28;20037;-82
2023/06/17 02:56:12;;;;;;;7.75;6.55;;;16.80;82.60;;;;;;5035861;28;20029;-82
2023/06/17 02:58:38;;;;;;;7.05;6.35;;;16.80;82.60;;;;;;5018285;28;20112;-82
2023/06/17 03:01:05;;;;;;;7.57;6.45;;;16.80;82.50;;;;;;5018508;28;20056;-82
2023/06/17 03:03:35;;;;;;;7.97;6.38;;;16.70;82.40;;;;;;5034766;28;20026;-82
2023/06/17 03:06:05;;;;;;;7.70;6.90;;;16.70;82.40;;;;;;5018517;28;20128;-81
2023/06/17 03:08:33;;;;;;;7.90;6.25;;;16.70;82.50;;;;;;5034585;28;20068;-82
2023/06/17 03:10:59;;;;;;;8.70;6.63;;;16.70;82.50;;;;;;5034559;28;20022;-81
2023/06/17 03:13:26;;;;;;;7.05;6.35;;;16.60;82.50;;;;;;5041259;28;20021;-81
2023/06/17 03:15:53;;;;;;;8.07;6.32;;;16.60;82.50;;;;;;5057898;28;20060;-82
2023/06/17 03:18:20;;;;;;;6.70;6.00;;;16.60;82.50;;;;;;5041472;28;20029;-82
2023/06/17 03:20:45;;;;;;;7.10;6.35;;;16.60;82.50;;;;;;5057864;28;20082;-82
2023/06/17 03:23:11;;;;;;;8.50;6.05;;;16.50;82.50;;;;;;5041146;28;20466;-82
2023/06/17 03:25:37;;;;;;;7.30;6.60;;;16.50;82.50;;;;;;5057735;28;20033;-82
2023/06/17 03:28:03;;;;;;;6.68;5.93;;;16.50;82.50;;;;;;5057684;28;20046;-82
2023/06/17 03:30:31;;;;;;;7.47;6.43;;;16.50;82.80;;;;;;5057686;28;20103;-82
2023/06/17 03:32:57;;;;;;;6.43;5.78;;;16.50;82.90;;;;;;5058459;28;20033;-82
2023/06/17 03:35:24;;;;;;;7.03;5.95;;;16.50;82.90;;;;;;5041185;28;20035;-82
2023/06/17 03:38:02;;;;;;;8.23;6.30;;;16.40;82.80;;;;;;5059568;28;20035;-82
2023/06/17 03:40:28;;;;;;;8.10;6.20;;;16.40;83.60;;;;;;5070846;28;20025;-81
2023/06/17 03:42:54;;;;;;;7.28;6.50;;;16.40;82.90;;;;;;5082156;28;20039;-81
2023/06/17 03:45:20;;;;;;;7.38;6.60;;;16.40;82.90;;;;;;5082608;28;20028;-81
2023/06/17 03:47:46;;;;;;;7.30;6.40;;;16.40;82.90;;;;;;5099344;28;20028;-82
2023/06/17 03:50:12;;;;;;;6.40;5.80;;;16.30;83.00;;;;;;5080745;28;20021;-82
2023/06/17 03:52:38;;;;;;;7.90;6.30;;;16.40;83.10;;;;;;5078671;28;20050;-82
2023/06/17 03:55:04;;;;;;;7.03;5.72;;;16.30;83.10;;;;;;5057843;28;20385;-82
2023/06/17 03:57:32;;;;;;;9.40;6.30;;;16.30;83.80;;;;;;5057514;28;20020;-81
2023/06/17 03:59:58;;;;;;;7.22;6.22;;;16.30;83.40;;;;;;5040569;28;20419;-82
2023/06/17 04:02:24;;;;;;;9.73;6.88;;;16.30;83.50;;;;;;5056905;28;20107;-82
2023/06/17 04:04:52;;;;;;;7.10;6.32;;;16.40;83.70;;;;;;5074839;28;20024;-82
2023/06/17 04:07:19;;;;;;;6.75;6.15;;;16.30;83.90;;;;;;5057444;28;20044;-82
2023/06/17 04:09:45;;;;;;;8.85;6.53;;;16.30;84.00;;;;;;5040190;28;20438;-81
2023/06/17 04:12:11;;;;;;;8.82;7.50;;;16.40;84.10;;;;;;5040113;28;20048;-82
2023/06/17 04:14:37;;;;;;;8.65;7.57;;;16.40;84.20;;;;;;5039957;28;20103;-82
2023/06/17 04:17:03;;;;;;;9.18;7.65;;;16.30;84.90;;;;;;5039688;28;20067;-82
2023/06/17 04:19:31;;;;;;;8.35;7.43;;;16.40;84.40;;;;;;5039998;28;20392;-82
2023/06/17 04:21:57;;;;;;;8.73;7.22;;;16.40;84.50;;;;;;5056850;28;20031;-82
2023/06/17 04:24:23;;;;;;;8.75;7.47;;;16.40;84.60;;;;;;5073149;28;20390;-82
2023/06/17 04:26:52;;;;;;;9.05;8.15;;;16.40;84.70;;;;;;5073731;28;20486;-81
2023/06/17 04:29:18;;;;;;;8.88;7.95;;;16.40;84.80;;;;;;5074212;28;20032;-82
2023/06/17 04:31:46;;;;;;;9.68;8.65;;;16.40;84.80;;;;;;5039585;28;20025;-81
2023/06/17 04:34:21;;;;;;;9.60;8.60;;;16.40;84.90;;;;;;5039871;28;20032;-82
2023/06/17 04:36:49;;;;;;;12.15;8.88;;;16.50;85.00;;;;;;5056204;28;20028;-81
2023/06/17 04:39:16;;;;;;;11.55;8.52;;;16.50;85.10;;;;;;5074022;28;20032;-82
2023/06/17 04:41:45;;;;;;;12.15;9.05;;;16.60;85.30;;;;;;5056092;28;20386;-82
2023/06/17 04:44:11;;;;;;;9.85;8.85;;;16.60;85.30;;;;;;5056620;28;20465;-81
2023/06/17 04:46:37;;;;;;;10.23;8.40;;;16.60;85.30;;;;;;5055574;28;20039;-81
2023/06/17 04:49:03;;;;;;;8.45;7.65;;;16.60;85.40;;;;;;5054939;28;20036;-82
2023/06/17 04:51:29;;;;;;;8.30;7.50;;;16.70;85.50;;;;;;5072626;28;20021;-81
2023/06/17 04:53:56;;;;;;;10.13;9.13;;;16.70;85.60;;;;;;5055665;28;20462;-81
2023/06/17 04:56:26;;;;;;;10.30;8.70;;;16.70;85.60;;;;;;5056412;28;20029;-82
2023/06/17 04:58:52;;;;;;;9.75;8.45;;;16.80;85.60;;;;;;5073627;28;20020;-82
2023/06/17 05:01:17;;;;;;;8.98;8.07;;;16.80;85.70;;;;;;5073799;28;20036;-82
2023/06/17 05:03:43;;;;;;;10.10;9.07;;;16.90;85.90;;;;;;5055466;28;20025;-82
2023/06/17 05:06:09;;;;;;;11.85;9.00;;;16.90;85.90;;;;;;5055753;28;20086;-82
2023/06/17 05:08:37;;;;;;;11.18;8.68;;;17.00;86.10;;;;;;5073492;28;20343;-81
2023/06/17 05:11:03;;;;;;;10.02;9.02;;;17.10;86.80;;;;;;5056330;28;20024;-82
2023/06/17 05:13:31;;;;;;;10.00;9.00;;;17.10;86.20;;;;;;5072922;28;20024;-82
2023/06/17 05:15:57;;;;;;;8.95;8.07;;;17.10;86.20;;;;;;5039251;28;20474;-81
2023/06/17 05:18:25;;;;;;;8.85;7.97;;;17.10;86.30;;;;;;5039351;28;20025;-81
2023/06/17 05:20:51;;;;;;;9.23;8.32;;;17.20;86.40;;;;;;5056326;28;20036;-81
2023/06/17 05:23:17;;;;;;;9.32;8.50;;;17.30;86.40;;;;;;5056868;28;20140;-82
2023/06/17 05:25:42;;;;;;;9.57;8.65;;;17.30;86.30;;;;;;5057305;28;20051;-82
2023/06/17 05:28:10;;;;;;;9.57;8.02;;;17.40;86.30;;;;;;5085963;28;20019;-81
2023/06/17 05:30:38;;;;;;;9.68;8.40;;;17.40;86.20;;;;;;5080941;28;20039;-81
2023/06/17 05:33:04;;;;;;;10.07;7.97;;;17.50;86.20;;;;;;5080606;28;20048;-81
2023/06/17 05:35:30;;;;;;;9.57;8.57;;;17.50;86.30;;;;;;5080872;28;20083;-81
2023/06/17 05:37:55;;;;;;;10.25;8.15;;;17.60;86.40;;;;;;5096792;28;20025;-81
2023/06/17 05:40:21;;;;;;;10.02;8.38;;;17.70;86.40;;;;;;5058814;28;20029;-82
2023/06/17 05:42:47;;;;;;;8.88;7.97;;;17.70;86.40;;;;;;5055958;28;20434;-81
2023/06/17 05:45:12;;;;;;;9.98;7.95;;;17.80;87.00;;;;;;5039295;28;20020;-82
2023/06/17 05:47:38;;;;;;;8.32;7.53;;;17.90;86.30;;;;;;5038934;28;20040;-82
2023/06/17 05:50:04;;;;;;;8.00;7.20;;;17.90;86.00;;;;;;5038498;28;20037;-82
2023/06/17 05:52:29;;;;;;;8.40;7.60;;;18.00;85.80;;;;;;5038828;28;20028;-82
2023/06/17 05:54:55;;;;;;;8.77;7.78;;;18.10;85.70;;;;;;5073099;28;20174;-82
2023/06/17 05:57:21;;;;;;;9.95;7.38;;;18.10;85.60;;;;;;5038734;28;20112;-82
2023/06/17 05:59:46;;;;;;;7.68;6.43;;;18.20;85.60;;;;;;5054993;28;20059;-81
2023/06/17 06:02:12;;;;;;;7.93;6.80;;;18.30;85.50;;;;;;5076961;28;20490;-82
2023/06/17 06:04:38;;;;;;;7.32;6.53;;;18.30;85.20;;;;;;5076008;28;20055;-82
2023/06/17 06:07:03;;;;;;;7.72;6.93;;;18.40;85.00;;;;;;5059018;28;20462;-81
2023/06/17 06:09:29;;;;;;;9.05;6.07;;;18.50;84.80;;;;;;5075859;28;20454;-81
2023/06/17 06:11:55;;;;;;;7.43;5.93;;;18.60;84.60;;;;;;5058774;28;20051;-81
2023/06/17 06:14:20;;;;;;;7.00;6.28;;;18.60;84.30;;;;;;5042495;28;20116;-81
2023/06/17 06:16:46;;;;;;;7.30;6.25;;;18.70;83.90;;;;;;5042182;28;20032;-81
2023/06/17 06:19:12;;;;;;;6.15;5.15;;;18.70;83.60;;;;;;5042416;28;20032;-82
2023/06/17 06:21:40;;;;;;;7.63;5.22;;;18.80;83.40;;;;;;5058476;28;20024;-81
2023/06/17 06:24:06;;;;;;;5.72;5.13;;;18.90;83.30;;;;;;5076514;28;20029;-81
2023/06/17 06:26:31;;;;;;;5.47;4.95;;;18.90;83.10;;;;;;5058577;28;20040;-82
2023/06/17 06:28:57;;;;;;;5.07;4.57;;;19.00;82.80;;;;;;5042144;28;20133;-81
2023/06/17 06:31:23;;;;;;;5.18;4.68;;;19.10;82.50;;;;;;5058595;28;20031;-82
2023/06/17 06:33:48;;;;;;;5.63;5.07;;;19.10;82.40;;;;;;5075085;28;20024;-81
2023/06/17 06:36:14;;;;;;;6.20;5.60;;;19.20;82.10;;;;;;5058654;28;20488;-82
2023/06/17 06:38:39;;;;;;;5.40;4.70;;;19.30;81.50;;;;;;5041977;28;20017;-82
2023/06/17 06:41:05;;;;;;;5.60;3.97;;;19.30;80.90;;;;;;5041885;28;20028;-82
2023/06/17 06:43:31;;;;;;;5.05;4.13;;;19.40;80.60;;;;;;5041854;28;20029;-82
2023/06/17 06:45:56;;;;;;;4.28;3.88;;;19.50;80.40;;;;;;5058483;28;20397;-82
2023/06/17 06:48:22;;;;;;;5.78;3.83;;;19.50;80.20;;;;;;5058450;28;20028;-82
2023/06/17 06:50:48;;;;;;;13.45;4.10;;;19.60;80.00;;;;;;5058312;28;20032;-81
2023/06/17 06:53:13;;;;;;;7.20;3.53;;;19.70;79.90;;;;;;5076038;28;20461;-82
2023/06/17 06:55:39;;;;;;;3.90;3.33;;;19.80;79.70;;;;;;5041476;28;20032;-82
2023/06/17 06:58:05;;;;;;;3.80;3.40;;;19.80;79.90;;;;;;5058280;28;20035;-82
2023/06/17 07:00:30;;;;;;;3.53;3.22;;;19.90;78.70;;;;;;5076144;28;20032;-82
2023/06/17 07:02:56;;;;;;;3.83;3.00;;;20.00;78.40;;;;;;5076254;28;20035;-82
2023/06/17 07:05:24;;;;;;;3.42;3.13;;;20.10;78.30;;;;;;5058116;28;20466;-82
2023/06/17 07:07:50;;;;;;;3.78;3.22;;;20.10;78.10;;;;;;5041943;28;20457;-82
2023/06/17 07:10:15;;;;;;;4.40;3.22;;;20.20;78.10;;;;;;5075995;28;20071;-82
2023/06/17 07:12:41;;;;;;;3.78;3.38;;;20.20;77.90;;;;;;5057272;28;20494;-82
2023/06/17 07:15:08;;;;;;;3.22;2.90;;;20.30;77.80;;;;;;5042096;28;20029;-82
2023/06/17 07:17:33;;;;;;;3.58;3.28;;;20.40;77.70;;;;;;5061793;28;20086;-82
2023/06/17 07:19:59;;;;;;;3.10;2.80;;;20.40;76.90;;;;;;5060985;28;20024;-82
2023/06/17 07:22:25;;;;;;;5.65;2.97;;;20.50;75.90;;;;;;5082498;28;20028;-82
2023/06/17 07:24:50;;;;;;;3.35;3.00;;;20.60;75.40;;;;;;5100418;28;20012;-82
2023/06/17 07:27:16;;;;;;;4.57;3.00;;;20.70;75.00;;;;;;5066239;28;20044;-82
2023/06/17 07:29:42;;;;;;;3.80;3.35;;;20.70;74.80;;;;;;5100173;28;20045;-82
2023/06/17 07:32:08;;;;;;;4.03;3.08;;;20.80;74.90;;;;;;5064902;28;20013;-83
2023/06/17 07:34:34;;;;;;;3.92;2.95;;;20.90;74.90;;;;;;5059163;28;20063;-82
2023/06/17 07:37:00;;;;;;;3.55;2.95;;;20.90;74.90;;;;;;5058246;28;20032;-82
2023/06/17 07:39:26;;;;;;;4.55;3.30;;;21.00;74.80;;;;;;5041269;28;20025;-82
2023/06/17 07:41:51;;;;;;;3.72;3.10;;;21.10;74.40;;;;;;5057748;28;20029;-83
2023/06/17 07:44:17;;;;;;;4.13;3.65;;;21.20;74.00;;;;;;5057091;28;20032;-82
2023/06/17 07:46:43;;;;;;;3.33;3.03;;;21.30;73.50;;;;;;5075254;28;20029;-83
2023/06/17 07:49:09;;;;;;;3.05;2.75;;;21.30;73.20;;;;;;5040712;28;20520;-83
2023/06/17 07:51:35;;;;;;;3.40;3.10;;;21.40;73.20;;;;;;5057262;28;20013;-83
2023/06/17 07:54:01;;;;;;;3.45;3.15;;;21.50;72.90;;;;;;5057035;28;20116;-83
2023/06/17 07:56:29;;;;;;;4.65;3.40;;;21.50;72.70;;;;;;5057270;28;20489;-83
2023/06/17 07:58:55;;;;;;;3.92;3.15;;;21.60;72.60;;;;;;5057090;28;20039;-82
2023/06/17 08:01:22;;;;;;;3.38;3.08;;;21.60;72.30;;;;;;5040647;28;20044;-83
2023/06/17 08:03:47;;;;;;;3.55;3.25;;;21.70;72.30;;;;;;5074975;28;20035;-83
2023/06/17 08:06:13;;;;;;;4.15;3.50;;;21.80;72.00;;;;;;5057027;28;20382;-83
2023/06/17 08:08:40;;;;;;;3.70;3.40;;;21.90;71.30;;;;;;5040404;28;20059;-83
2023/06/17 08:11:06;;;;;;;3.42;3.10;;;22.00;71.00;;;;;;5056514;28;20105;-83
2023/06/17 08:13:32;;;;;;;5.55;3.80;;;22.00;70.50;;;;;;5056441;28;20458;-83
2023/06/17 08:15:57;;;;;;;4.13;3.60;;;22.10;70.00;;;;;;5056540;28;20032;-82
2023/06/17 08:18:23;;;;;;;3.90;3.45;;;22.20;69.60;;;;;;5056595;28;20120;-83
2023/06/17 08:20:49;;;;;;;3.58;3.25;;;22.30;69.30;;;;;;5073352;28;20025;-83
2023/06/17 08:23:15;;;;;;;3.47;3.10;;;22.30;69.20;;;;;;5039692;28;20032;-83
2023/06/17 08:25:41;;;;;;;3.97;3.40;;;22.40;69.10;;;;;;5056313;28;20029;-83
2023/06/17 08:28:07;;;;;;;3.90;3.47;;;22.40;69.00;;;;;;5056330;28;20024;-83
2023/06/17 08:30:32;;;;;;;3.28;2.97;;;22.50;68.80;;;;;;5074165;28;20401;-83
2023/06/17 08:32:58;;;;;;;4.30;3.10;;;22.60;68.70;;;;;;5056216;28;20042;-82
2023/06/17 08:35:24;;;;;;;5.25;3.70;;;22.60;68.20;;;;;;5074191;28;20108;-83
2023/06/17 08:37:50;;;;;;;3.25;2.95;;;22.70;68.60;;;;;;5039876;28;20070;-83
2023/06/17 08:40:18;;;;;;;4.10;3.10;;;22.70;67.80;;;;;;5056152;28;20031;-83
2023/06/17 08:42:43;;;;;;;3.42;3.13;;;22.80;67.70;;;;;;5073858;28;20063;-83
2023/06/17 08:45:10;;;;;;;3.78;3.05;;;22.80;67.30;;;;;;5039300;28;20504;-83
2023/06/17 08:47:36;;;;;;;3.20;2.90;;;22.90;66.80;;;;;;5073932;28;20029;-84
2023/06/17 08:50:02;;;;;;;2.78;2.58;;;23.00;66.50;;;;;;5039256;28;20132;-83
2023/06/17 08:52:31;;;;;;;3.15;2.90;;;23.10;66.60;;;;;;5056137;28;20024;-84
2023/06/17 08:55:00;;;;;;;3.17;2.88;;;23.20;66.50;;;;;;5039482;28;20032;-83
2023/06/17 08:57:27;;;;;;;3.78;3.08;;;23.20;66.20;;;;;;5073899;28;20036;-84
2023/06/17 08:59:53;;;;;;;2.95;2.58;;;23.30;66.00;;;;;;5056471;28;20052;-82
2023/06/17 09:02:21;;;;;;;3.55;2.75;;;23.40;65.60;;;;;;5056050;28;20033;-83
2023/06/17 09:04:46;;;;;;;3.75;3.05;;;23.50;65.60;;;;;;5039190;28;20028;-83
2023/06/17 09:07:13;;;;;;;3.20;2.90;;;23.50;65.30;;;;;;5072404;28;20501;-84
2023/06/17 09:09:39;;;;;;;3.45;2.80;;;23.60;65.20;;;;;;5056125;28;20470;-83
2023/06/17 09:12:05;;;;;;;3.97;2.65;;;23.70;64.70;;;;;;5055583;28;20190;-83
2023/06/17 09:14:32;;;;;;;3.40;2.90;;;23.70;64.30;;;;;;5056427;28;20040;-84
2023/06/17 09:16:58;;;;;;;3.72;2.90;;;23.80;64.00;;;;;;5056766;28;20028;-83
2023/06/17 09:19:24;;;;;;;5.35;3.75;;;23.90;63.10;;;;;;5040326;28;20051;-84
2023/06/17 09:21:50;;;;;;;4.82;3.10;;;23.90;61.10;;;;;;5096782;28;20009;-83
2023/06/17 09:24:15;;;;;;;3.38;3.00;;;23.90;60.40;;;;;;5080243;28;20013;-83
2023/06/17 09:26:43;;;;;;;2.88;2.60;;;24.00;60.60;;;;;;5080851;28;20050;-83
2023/06/17 09:29:13;;;;;;;3.72;2.67;;;24.00;60.80;;;;;;5097896;28;20028;-83
2023/06/17 09:31:48;;;;;;;3.03;2.47;;;24.10;61.00;;;;;;5079913;28;20028;-83
2023/06/17 09:34:14;;;;;;;3.35;2.70;;;24.10;61.10;;;;;;5076138;28;20387;-83
2023/06/17 09:36:40;;;;;;;4.00;2.60;;;24.20;61.10;;;;;;5055661;28;20099;-84
2023/06/17 09:39:10;;;;;;;3.00;2.70;;;24.30;61.00;;;;;;5073545;28;20496;-83
2023/06/17 09:41:40;;;;;;;2.90;2.58;;;24.30;60.90;;;;;;5073663;28;20496;-83
2023/06/17 09:44:06;;;;;;;3.47;3.17;;;24.40;59.50;;;;;;5055618;28;20071;-83
2023/06/17 09:46:39;;;;;;;3.65;2.78;;;24.50;59.40;;;;;;5055000;28;20041;-83
2023/06/17 09:49:12;;;;;;;3.45;2.72;;;24.50;59.40;;;;;;5039726;28;20025;-83
2023/06/17 09:51:38;;;;;;;3.30;2.60;;;24.50;59.10;;;;;;5038600;28;20025;-84
2023/06/17 09:54:08;;;;;;;3.17;2.88;;;24.60;59.20;;;;;;5038766;28;20478;-83
2023/06/17 09:56:34;;;;;;;4.27;2.70;;;24.60;59.00;;;;;;5038802;28;20037;-84
2023/06/17 09:59:01;;;;;;;4.15;3.08;;;24.70;58.60;;;;;;5054985;28;20036;-83
2023/06/17 10:01:39;;;;;;;5.70;2.70;;;24.70;58.20;;;;;;5038430;28;20040;-83
2023/06/17 10:04:11;;;;;;;3.78;2.70;;;24.80;57.90;;;;;;5055159;28;20028;-84
2023/06/17 10:06:40;;;;;;;2.97;2.67;;;24.80;58.10;;;;;;5055131;28;20033;-84
2023/06/17 10:09:07;;;;;;;2.80;2.60;;;24.90;57.50;;;;;;5055274;28;20145;-83
2023/06/17 10:11:40;;;;;;;3.45;2.60;;;24.90;57.30;;;;;;5055033;28;20055;-83
2023/06/17 10:14:06;;;;;;;2.90;2.45;;;25.00;57.40;;;;;;5055165;28;20460;-84
2023/06/17 10:16:36;;;;;;;2.70;2.50;;;25.00;57.30;;;;;;5054853;28;20524;-84
2023/06/17 10:19:05;;;;;;;2.70;2.50;;;25.10;57.20;;;;;;5073122;28;20028;-84
2023/06/17 10:21:33;;;;;;;3.33;2.60;;;25.10;57.20;;;;;;5072415;28;20021;-83
2023/06/17 10:24:03;;;;;;;3.60;2.60;;;25.20;57.30;;;;;;5072888;28;20025;-84
2023/06/17 10:26:30;;;;;;;3.50;2.60;;;25.20;57.20;;;;;;5038276;28;20035;-83
2023/06/17 10:29:12;;;;;;;3.05;2.50;;;25.30;56.90;;;;;;5072702;28;20051;-84
2023/06/17 10:31:42;;;;;;;4.15;2.70;;;25.40;56.90;;;;;;5055125;28;20032;-84
2023/06/17 10:34:14;;;;;;;;;;;25.40;56.70;;;;;;5054956;28;20474;-83
2023/06/17 10:36:40;;;;;;;2.70;2.50;;;25.40;56.70;;;;;;5072696;28;20431;-84
2023/06/17 10:39:14;;;;;;;3.45;2.70;;;25.40;56.50;;;;;;5055105;28;20029;-85
2023/06/17 10:41:40;;;;;;;3.47;2.90;;;25.50;56.30;;;;;;5073191;28;20032;-84
2023/06/17 10:44:38;;;;;;;2.78;2.45;;;25.50;56.00;;;;;;5072606;28;20131;-84
2023/06/17 10:47:19;;;;;;;3.33;2.72;;;25.60;55.80;;;;;;5057193;28;20131;-85
2023/06/17 10:49:45;;;;;;;;;;;25.60;55.30;;;;;;5058511;28;20115;-84
2023/06/17 10:52:15;;;;;;;2.70;2.50;;;25.70;55.70;;;;;;5058032;28;19927;-83
2023/06/17 10:54:50;;;;;;;4.70;2.60;;;25.70;55.40;;;;;;5041968;28;20028;-85
2023/06/17 10:57:27;;;;;;;2.42;2.22;;;25.80;55.40;;;;;;5058187;28;20389;-83
2023/06/17 10:59:53;;;;;;;3.00;2.47;;;25.80;55.30;;;;;;5076271;28;20028;-84
2023/06/17 11:02:21;;;;;;;2.55;2.35;;;25.90;54.90;;;;;;5041456;28;20039;-83
2023/06/17 11:04:48;;;;;;;3.70;2.95;;;25.90;54.50;;;;;;5058242;28;20028;-84
2023/06/17 11:07:14;;;;;;;2.50;2.30;;;26.00;53.60;;;;;;5058724;28;20021;-84
2023/06/17 11:09:40;;;;;;;3.35;2.47;;;26.00;53.60;;;;;;5041754;28;20028;-84
2023/06/17 11:12:07;;;;;;;4.10;2.45;;;26.10;53.10;;;;;;5076355;28;20059;-84
2023/06/17 11:14:34;;;;;;;3.25;2.63;;;26.20;53.00;;;;;;5063432;28;20025;-84
2023/06/17 11:17:02;;;;;;;3.35;2.40;;;26.10;52.90;;;;;;5062979;28;20040;-84
2023/06/17 11:19:27;;;;;;;2.92;2.38;;;26.20;53.10;;;;;;5058601;28;20056;-84
2023/06/17 11:22:02;;;;;;;3.78;2.70;;;26.30;53.00;;;;;;5075454;28;20535;-84
2023/06/17 11:24:35;;;;;;;2.65;2.42;;;26.30;52.90;;;;;;5060877;28;20477;-84
2023/06/17 11:27:02;;;;;;;5.22;2.78;;;26.30;52.90;;;;;;5082388;28;20025;-84
2023/06/17 11:29:29;;;;;;;3.72;2.60;;;26.40;52.90;;;;;;5082118;28;20032;-84
2023/06/17 11:31:58;;;;;;;3.60;2.55;;;26.40;52.10;;;;;;5082672;28;20012;-83
2023/06/17 11:34:25;;;;;;;2.97;2.67;;;26.40;52.00;;;;;;5099659;28;20013;-84
2023/06/17 11:36:54;;;;;;;2.78;2.15;;;26.50;52.10;;;;;;5099381;28;20255;-84
2023/06/17 11:39:32;;;;;;;2.53;2.30;;;26.50;52.30;;;;;;5083250;28;20032;-84
2023/06/17 11:42:02;;;;;;;3.10;2.50;;;26.50;52.60;;;;;;5076275;28;20021;-84
2023/06/17 11:44:32;;;;;;;2.65;2.28;;;26.60;52.60;;;;;;5075019;28;20028;-84
2023/06/17 11:47:05;;;;;;;2.63;2.40;;;26.60;52.40;;;;;;5040797;28;20028;-84
2023/06/17 11:49:31;;;;;;;2.65;2.30;;;26.70;52.30;;;;;;5075078;28;20359;-84
2023/06/17 11:52:08;;;;;;;3.00;2.45;;;26.70;52.10;;;;;;5040316;28;20132;-84
2023/06/17 11:54:35;;;;;;;3.63;2.50;;;26.80;51.40;;;;;;5057908;28;20033;-84
2023/06/17 11:57:02;;;;;;;3.65;2.38;;;26.70;51.60;;;;;;5075114;28;20170;-85
2023/06/17 11:59:30;;;;;;;4.55;2.47;;;26.70;52.00;;;;;;5056414;28;20025;-84
2023/06/17 12:01:55;;;;;;;3.95;2.50;;;26.80;52.30;;;;;;5056491;28;20123;-84
2023/06/17 12:04:24;;;;;;;2.45;2.25;;;26.80;52.40;;;;;;5040375;28;20052;-84
2023/06/17 12:06:50;;;;;;;5.85;2.70;;;26.90;52.40;;;;;;5056811;28;20036;-84
2023/06/17 12:09:16;;;;;;;3.17;2.50;;;26.90;51.60;;;;;;5056727;28;20119;-84
2023/06/17 12:11:43;;;;;;;2.50;2.30;;;26.90;51.20;;;;;;5039686;28;20187;-85
2023/06/17 12:14:11;;;;;;;2.40;2.20;;;27.00;51.50;;;;;;5073781;28;20025;-84
2023/06/17 12:16:39;;;;;;;4.25;2.55;;;27.10;51.40;;;;;;5074349;28;20028;-84
2023/06/17 12:19:12;;;;;;;3.50;2.60;;;27.10;51.20;;;;;;5040324;28;20047;-84
2023/06/17 12:21:39;;;;;;;3.35;2.70;;;27.20;51.30;;;;;;5056205;28;20025;-84
2023/06/17 12:24:05;;;;;;;3.42;2.97;;;27.20;50.70;;;;;;5056970;28;20028;-84
2023/06/17 12:26:31;;;;;;;3.13;2.70;;;27.30;49.70;;;;;;5056281;28;20439;-84
2023/06/17 12:28:57;;;;;;;3.20;2.72;;;27.30;49.30;;;;;;5039953;28;20094;-84
2023/06/17 12:31:26;;;;;;;2.83;2.55;;;27.30;48.80;;;;;;5056297;28;20021;-84
2023/06/17 12:33:52;;;;;;;2.80;2.60;;;27.40;48.80;;;;;;5056563;28;20025;-84
2023/06/17 12:36:18;;;;;;;5.43;2.60;;;27.40;48.70;;;;;;5073019;28;20034;-84
2023/06/17 12:38:45;;;;;;;2.90;2.60;;;27.30;49.20;;;;;;5073971;28;20111;-84
2023/06/17 12:41:11;;;;;;;2.80;2.53;;;27.40;49.60;;;;;;5056204;28;20036;-84
2023/06/17 12:43:39;;;;;;;3.28;2.63;;;27.40;49.50;;;;;;5039567;28;20474;-84
2023/06/17 12:46:06;;;;;;;3.33;2.80;;;27.50;49.70;;;;;;5055840;28;20028;-84
2023/06/17 12:48:35;;;;;;;3.67;2.60;;;27.50;49.70;;;;;;5055730;28;20027;-84
2023/06/17 12:51:02;;;;;;;2.85;2.38;;;27.60;49.70;;;;;;5056726;28;20030;-84
2023/06/17 12:53:28;;;;;;;3.50;2.85;;;27.60;49.80;;;;;;5073282;28;20086;-84
2023/06/17 12:55:58;;;;;;;2.80;2.60;;;27.60;49.40;;;;;;5039603;28;20424;-84
2023/06/17 12:58:26;;;;;;;3.13;2.65;;;27.70;49.10;;;;;;5074095;28;20025;-84
2023/06/17 13:00:53;;;;;;;4.55;2.55;;;27.80;49.20;;;;;;5038969;28;20470;-84
2023/06/17 13:03:19;;;;;;;3.20;2.90;;;27.80;49.30;;;;;;5055771;28;20032;-84
2023/06/17 13:05:46;;;;;;;3.10;2.70;;;27.80;49.20;;;;;;5055577;28;20119;-84
2023/06/17 13:08:12;;;;;;;2.78;2.55;;;27.90;49.10;;;;;;5073842;28;20063;-84